createdAt,value
2018-12-31T00:04:35.464Z,3.53
2018-12-31T00:09:38.845Z,2.10
2018-12-31T00:14:42.228Z,6.40
2018-12-31T00:19:45.611Z,5.13
2018-12-31T00:24:48.987Z,6.93
2018-12-31T00:29:52.369Z,2.93
2018-12-31T00:34:55.745Z,2.60
2018-12-31T00:39:59.128Z,10.90
2018-12-31T00:45:02.507Z,2.60
2018-12-31T00:50:05.892Z,4.33
2018-12-31T00:55:09.271Z,3.90
2018-12-31T01:00:12.653Z,1.83
2018-12-31T01:05:16.032Z,3.47
2018-12-31T01:10:19.416Z,2.70
2018-12-31T01:15:22.791Z,1.97
2018-12-31T01:20:26.167Z,2.60
2018-12-31T01:25:29.549Z,1.60
2018-12-31T01:30:32.920Z,2.73
2018-12-31T01:35:36.304Z,16.73
2018-12-31T01:40:39.687Z,3.77
2018-12-31T01:45:43.068Z,4.07
2018-12-31T01:50:46.456Z,4.10
2018-12-31T01:55:49.834Z,5.13
2018-12-31T02:00:53.211Z,3.57
2018-12-31T02:05:56.587Z,2.77
2018-12-31T02:10:59.961Z,4.07
2018-12-31T02:16:03.334Z,4.23
2018-12-31T02:21:06.709Z,7.37
2018-12-31T02:26:10.086Z,4.10
2018-12-31T02:31:13.479Z,4.87
2018-12-31T02:36:16.854Z,4.27
2018-12-31T02:41:20.229Z,4.93
2018-12-31T02:46:23.598Z,2.20
2018-12-31T02:51:26.982Z,7.20
2018-12-31T02:56:30.369Z,1.90
2018-12-31T03:01:33.739Z,5.50
2018-12-31T03:06:37.113Z,2.30
2018-12-31T03:11:40.499Z,9.17
2018-12-31T03:16:43.871Z,6.10
2018-12-31T03:21:47.253Z,4.30
2018-12-31T03:26:50.635Z,3.53
2018-12-31T03:31:54.022Z,2.23
2018-12-31T03:36:57.396Z,10.60
2018-12-31T03:42:00.763Z,6.83
2018-12-31T03:47:04.143Z,3.93
2018-12-31T03:52:07.515Z,3.90
2018-12-31T03:57:10.907Z,4.00
2018-12-31T04:02:14.310Z,11.73
2018-12-31T04:07:17.679Z,4.33
2018-12-31T04:12:21.057Z,2.17
2018-12-31T04:17:24.449Z,2.80
2018-12-31T04:22:27.835Z,3.40
2018-12-31T04:27:31.229Z,2.87
2018-12-31T04:32:34.611Z,3.07
2018-12-31T04:37:37.999Z,4.00
2018-12-31T04:42:41.376Z,4.40
2018-12-31T04:47:44.751Z,1.60
2018-12-31T04:52:48.132Z,1.93
2018-12-31T04:57:51.509Z,2.23
2018-12-31T05:02:54.889Z,1.30
2018-12-31T05:07:58.278Z,6.57
2018-12-31T05:13:01.655Z,1.87
2018-12-31T05:18:05.027Z,1.13
2018-12-31T05:23:08.409Z,3.60
2018-12-31T05:28:11.791Z,3.70
2018-12-31T05:33:15.164Z,9.73
2018-12-31T05:38:18.556Z,1.93
2018-12-31T05:43:21.934Z,3.33
2018-12-31T05:48:25.313Z,3.30
2018-12-31T05:53:28.683Z,1.87
2018-12-31T05:58:32.059Z,3.77
2018-12-31T06:03:35.431Z,8.30
2018-12-31T06:08:38.807Z,3.33
2018-12-31T06:13:42.183Z,0.80
2018-12-31T06:18:45.567Z,3.33
2018-12-31T06:23:48.950Z,1.03
2018-12-31T06:28:52.343Z,1.53
2018-12-31T06:33:55.715Z,1.43
2018-12-31T06:38:59.087Z,2.20
2018-12-31T06:44:02.471Z,3.93
2018-12-31T06:49:05.859Z,1.67
2018-12-31T06:54:09.243Z,2.80
2018-12-31T06:59:12.628Z,1.03
2018-12-31T07:04:16.011Z,1.13
2018-12-31T07:09:19.387Z,3.90
2018-12-31T07:14:22.769Z,2.20
2018-12-31T07:19:26.142Z,1.87
2018-12-31T07:24:29.531Z,3.37
2018-12-31T07:29:32.907Z,2.40
2018-12-31T07:34:36.287Z,2.53
2018-12-31T07:39:39.662Z,1.43
2018-12-31T07:44:43.047Z,2.60
2018-12-31T07:49:46.434Z,1.83
2018-12-31T07:54:49.896Z,1.90
2018-12-31T07:59:53.279Z,1.97
2018-12-31T08:04:56.670Z,3.57
2018-12-31T08:10:00.076Z,2.90
2018-12-31T08:15:04.233Z,2.27
2018-12-31T08:20:07.612Z,4.57
2018-12-31T08:25:11.052Z,4.70
2018-12-31T08:30:14.489Z,4.83
2018-12-31T08:35:17.992Z,3.13
2018-12-31T08:40:21.421Z,15.73
2018-12-31T08:45:24.846Z,5.47
2018-12-31T08:50:28.275Z,2.00
2018-12-31T08:55:31.691Z,2.23
2018-12-31T09:00:35.127Z,2.00
2018-12-31T09:05:38.560Z,1.53
2018-12-31T09:10:44.154Z,4.77
2018-12-31T09:15:47.579Z,2.23
2018-12-31T09:20:51.010Z,1.20
2018-12-31T09:25:56.385Z,2.60
2018-12-31T09:30:59.909Z,2.03
2018-12-31T09:36:03.341Z,3.73
2018-12-31T09:41:06.745Z,1.10
2018-12-31T09:46:10.172Z,1.70
2018-12-31T09:51:13.596Z,1.20
2018-12-31T09:56:17.023Z,2.57
2018-12-31T10:01:20.447Z,1.90
2018-12-31T10:06:23.871Z,1.50
2018-12-31T10:11:27.288Z,1.47
2018-12-31T10:16:30.714Z,1.60
2018-12-31T10:21:40.758Z,3.53
2018-12-31T10:26:39.305Z,1.30
2018-12-31T10:31:42.715Z,2.17
2018-12-31T10:36:46.144Z,3.73
2018-12-31T10:41:49.568Z,1.50
2018-12-31T10:46:52.943Z,1.20
2018-12-31T10:51:56.331Z,4.10
2018-12-31T10:56:59.702Z,1.13
2018-12-31T11:02:03.079Z,2.93
2018-12-31T11:07:06.463Z,2.07
2018-12-31T11:12:09.844Z,3.27
2018-12-31T11:17:13.218Z,1.90
2018-12-31T11:22:16.683Z,1.90
2018-12-31T11:27:20.069Z,2.30
2018-12-31T11:32:23.450Z,1.33
2018-12-31T11:37:34.399Z,1.47
2018-12-31T11:42:31.927Z,2.23
2018-12-31T11:47:35.340Z,1.57
2018-12-31T11:52:38.719Z,1.30
2018-12-31T11:57:42.101Z,1.90
2018-12-31T12:02:45.478Z,1.73
2018-12-31T12:07:48.859Z,5.60
2018-12-31T12:12:52.231Z,3.33
2018-12-31T12:17:55.602Z,2.83
2018-12-31T12:22:58.988Z,5.97
2018-12-31T12:28:02.365Z,2.10
2018-12-31T12:33:05.739Z,2.73
2018-12-31T12:38:09.199Z,11.50
2018-12-31T12:43:12.586Z,12.00
2018-12-31T12:48:15.959Z,3.43
2018-12-31T12:53:19.524Z,1.60
2018-12-31T12:58:22.904Z,6.67
2018-12-31T13:03:26.559Z,3.13
2018-12-31T13:08:29.940Z,2.53
2018-12-31T13:13:33.753Z,5.63
2018-12-31T13:18:37.119Z,1.17
2018-12-31T13:23:40.632Z,2.70
2018-12-31T13:28:44.310Z,3.03
2018-12-31T13:33:47.697Z,2.03
2018-12-31T13:38:51.093Z,3.93
2018-12-31T13:43:54.563Z,2.50
2018-12-31T13:48:57.947Z,1.43
2018-12-31T13:54:01.324Z,2.10
2018-12-31T13:59:04.943Z,1.60
2018-12-31T14:04:10.345Z,3.63
2018-12-31T14:09:13.578Z,2.33
2018-12-31T14:14:17.014Z,1.40
2018-12-31T14:19:20.395Z,2.80
2018-12-31T14:24:23.795Z,5.30
2018-12-31T14:29:27.176Z,4.23
2018-12-31T14:34:30.558Z,2.43
2018-12-31T14:39:33.943Z,2.03
2018-12-31T14:44:37.330Z,2.10
2018-12-31T14:49:40.890Z,1.70
2018-12-31T14:54:44.271Z,2.50
2018-12-31T14:59:47.669Z,3.33
2018-12-31T15:04:51.082Z,2.00
2018-12-31T15:09:54.460Z,1.80
2018-12-31T15:14:57.840Z,3.30
2018-12-31T15:20:01.234Z,2.40
2018-12-31T15:25:05.094Z,1.77
2018-12-31T15:30:09.347Z,1.50
2018-12-31T15:35:12.726Z,2.50
2018-12-31T15:40:16.380Z,1.83
2018-12-31T15:45:19.759Z,2.20
2018-12-31T15:50:23.221Z,6.33
2018-12-31T15:55:26.639Z,3.77
2018-12-31T16:00:30.166Z,2.57
2018-12-31T16:05:33.571Z,2.20
2018-12-31T16:10:37.050Z,1.70
2018-12-31T16:15:40.512Z,2.30
2018-12-31T16:20:43.961Z,1.93
2018-12-31T16:25:47.455Z,1.90
2018-12-31T16:30:50.880Z,1.77
2018-12-31T16:35:54.293Z,2.10
2018-12-31T16:40:57.674Z,2.23
2018-12-31T16:46:01.280Z,3.03
2018-12-31T16:51:04.725Z,14.30
2018-12-31T16:56:08.116Z,22.40
2018-12-31T17:01:11.569Z,14.53
2018-12-31T17:06:14.947Z,20.77
2018-12-31T17:11:18.327Z,8.20
2018-12-31T17:16:21.975Z,2.00
2018-12-31T17:21:25.355Z,11.20
2018-12-31T17:26:28.744Z,2.47
2018-12-31T17:31:32.123Z,3.93
2018-12-31T17:36:35.511Z,3.77
2018-12-31T17:41:38.891Z,4.00
2018-12-31T17:46:42.273Z,5.20
2018-12-31T17:51:45.647Z,1.73
2018-12-31T17:56:49.024Z,2.10
2018-12-31T18:01:52.588Z,3.00
2018-12-31T18:06:55.987Z,7.30
2018-12-31T18:11:59.368Z,2.50
2018-12-31T18:17:02.752Z,4.70
2018-12-31T18:22:06.138Z,25.20
2018-12-31T18:27:09.510Z,22.47
2018-12-31T18:32:12.898Z,3.20
2018-12-31T18:37:16.292Z,4.13
2018-12-31T18:42:19.843Z,3.10
2018-12-31T18:47:23.231Z,12.03
2018-12-31T18:52:26.915Z,13.30
2018-12-31T18:57:30.303Z,25.97
2018-12-31T19:02:33.723Z,9.40
2018-12-31T19:07:37.100Z,12.77
2018-12-31T19:12:40.487Z,13.67
2018-12-31T19:17:43.862Z,14.07
2018-12-31T19:22:47.327Z,6.03
2018-12-31T19:27:50.704Z,8.10
2018-12-31T19:32:54.075Z,3.30
2018-12-31T19:37:57.459Z,5.63
2018-12-31T19:43:00.855Z,10.10
2018-12-31T19:48:04.243Z,3.53
2018-12-31T19:53:07.620Z,11.93
2018-12-31T19:58:11.169Z,9.13
2018-12-31T20:03:14.547Z,14.77
2018-12-31T20:08:18.368Z,8.50
2018-12-31T20:13:21.795Z,5.50
2018-12-31T20:18:26.034Z,12.23
2018-12-31T20:23:29.424Z,4.90
2018-12-31T20:28:32.799Z,4.80
2018-12-31T20:33:37.071Z,7.33
2018-12-31T20:38:40.451Z,7.33
2018-12-31T20:43:43.840Z,5.57
2018-12-31T20:48:47.219Z,11.07
2018-12-31T20:53:50.772Z,4.17
2018-12-31T20:58:54.159Z,7.77
2018-12-31T21:03:57.541Z,13.17
2018-12-31T21:09:00.920Z,8.87
2018-12-31T21:14:04.303Z,5.33
2018-12-31T21:19:07.687Z,14.50
2018-12-31T21:24:11.080Z,6.80
2018-12-31T21:29:14.461Z,5.50
2018-12-31T21:34:17.844Z,12.40
2018-12-31T21:39:21.219Z,10.03
2018-12-31T21:44:24.599Z,4.57
2018-12-31T21:49:27.979Z,8.33
2018-12-31T21:54:31.370Z,8.70
2018-12-31T21:59:35.024Z,7.23
2018-12-31T22:04:38.399Z,9.63
2018-12-31T22:09:41.784Z,21.40
2018-12-31T22:14:45.167Z,7.60
2018-12-31T22:19:48.552Z,5.77
2018-12-31T22:24:51.933Z,6.33
2018-12-31T22:29:55.311Z,10.33
2018-12-31T22:34:58.700Z,3.23
2018-12-31T22:40:02.080Z,5.77
2018-12-31T22:45:06.105Z,15.27
2018-12-31T22:50:09.832Z,10.37
2018-12-31T22:55:13.220Z,8.73
2018-12-31T23:00:17.068Z,7.63
2018-12-31T23:05:20.468Z,31.30
2018-12-31T23:10:23.863Z,106.77
2018-12-31T23:15:27.259Z,74.87
2018-12-31T23:20:30.674Z,47.30
2018-12-31T23:25:34.330Z,43.60
2018-12-31T23:30:37.724Z,31.70
2018-12-31T23:35:41.104Z,38.33
2018-12-31T23:40:44.491Z,38.93
2018-12-31T23:45:47.872Z,27.77
2018-12-31T23:50:51.256Z,21.13
2018-12-31T23:55:54.644Z,15.23
